Archival Weather

Chicago O'Hare International

Chicago, Illinois (KORD)

Report from: Sunday, March 19, 2023 2:51 AM CDT
Current time: Friday, June 21, 2024 6:03 PM CDT

Current weather – Weather history – Daily summaries
Weather forecast

Temperature-6.7°C (19.9°F)
Wind chill-11.6°C (11.0°F)
Dew point-12.2°C (10.0°F)
Winds 6 kts (3.1 m/s, 6.9 mph) West (270°)
Visibility10 mi. (16.1 km)
Clouds Sky clear
Altimeter30.22 in.Hg (1023 mB)
Relative humidity65 %
Density altitude-3,032 ft. (-924 m)
Sea-level pressure102.4 kPa (1024 mB, 30.25 in.Hg)
Remarks System requires maintenance
Automated weather observing station with precipitation discriminator
Flight conditions Visual Meteorological Conditions
Raw dataKORD 190751Z 27006KT 10SM CLR M07/M12 A3022 RMK AO2 SLP244 T10671122 $
An error has occurred. This application may no longer respond until reloaded. Reload 🗙